WetterOnline ( https://www.wetteronline.de )

Wetter aktuell Bonn

Aktuelles Wetter: Königswinter-Heiderhof (147m)

6-stündlich | Neueste Meldungen
Ortszeit Temperatur Wetter
Fr, 20.05. 2:00 16.6° C bedeckt
Do, 19.05. 20:00 18.1° C bewölkt
Do, 19.05. 14:00 26.6° C wolkig
Do, 19.05. 8:00 20.0° C wolkig
Do, 19.05. 2:00 21.3° C wolkig
Mi, 18.05. 20:00 25.8° C wolkig
Mi, 18.05. 14:00 27.5° C wolkig
Mi, 18.05. 8:00 19.6° C wolkig
Ortszeit Temperatur Wetter
Fr, 20.05. 7:00 16.3° C bedeckt
Fr, 20.05. 6:50 16.3° C Dunst
Fr, 20.05. 6:40 16.2° C Dunst
Fr, 20.05. 6:30 16.0° C bedeckt
Fr, 20.05. 6:20 16.0° C Dunst
Fr, 20.05. 6:10 16.0° C Dunst
Fr, 20.05. 6:00 15.9° C bewölkt
Fr, 20.05. 5:30 15.8° C bewölkt
Fr, 20.05. 5:00 16.1° C bewölkt
Fr, 20.05. 4:30 16.3° C bedeckt
Fr, 20.05. 4:00 16.4° C bedeckt
Ortszeit Relative Feuchte Sichtweite
Fr, 20.05. 2:00 94% 24 km
Do, 19.05. 20:00 88% 50 km
Do, 19.05. 14:00 53% 55 km
Do, 19.05. 8:00 62% 55 km
Do, 19.05. 2:00 56% >70 km
Mi, 18.05. 20:00 44% >70 km
Mi, 18.05. 14:00 35% 50 km
Mi, 18.05. 8:00 67% 55 km
Ortszeit Relative Feuchte Sichtweite
Fr, 20.05. 7:00 94% 6 km
Fr, 20.05. 6:50 94% -
Fr, 20.05. 6:40 94% -
Fr, 20.05. 6:30 95% 6 km
Fr, 20.05. 6:20 95% -
Fr, 20.05. 6:10 97% -
Fr, 20.05. 6:00 96% 5.0 km
Fr, 20.05. 5:30 96% 5.0 km
Fr, 20.05. 5:00 94% 9 km
Fr, 20.05. 4:30 92% 9 km
Fr, 20.05. 4:00 93% 13 km
Ortszeit Niederschlagsmenge Niederschlagsart
Fr, 20.05. 2:00 0.0 l/m2 in 6 Std. -
Do, 19.05. 20:00 10 l/m2 in 12 Std. Regen, Niederschlag
Do, 19.05. 14:00 0.1 l/m2 in 6 Std. Regen
Do, 19.05. 8:00 0.0 l/m2 in 12 Std. -
Do, 19.05. 2:00 0.0 l/m2 in 6 Std. -
Mi, 18.05. 20:00 0.0 l/m2 in 12 Std. -
Mi, 18.05. 14:00 0.0 l/m2 in 6 Std. -
Mi, 18.05. 8:00 0.0 l/m2 in 12 Std. -
Ortszeit Niederschlagsmenge Niederschlagsart
Fr, 20.05. 7:00 0.0 l/m2 in 1 Std. -
Fr, 20.05. 6:50 keine Meldung -
Fr, 20.05. 6:40 keine Meldung -
Fr, 20.05. 6:30 0.0 l/m2 in 1 Std. -
Fr, 20.05. 6:20 keine Meldung -
Fr, 20.05. 6:10 keine Meldung -
Fr, 20.05. 6:00 0.0 l/m2 in 1 Std. -
Fr, 20.05. 5:30 0.0 l/m2 in 1 Std. -
Fr, 20.05. 5:00 0.0 l/m2 in 1 Std. -
Fr, 20.05. 4:30 0.0 l/m2 in 1 Std. -
Fr, 20.05. 4:00 0.0 l/m2 in 1 Std. -
Ortszeit Stärke Spitze Richtung
km/h Bft. km/h Grad Sektor
Fr, 20.05. 2:00 11 2 19 220° SW
Do, 19.05. 20:00 6 1 56 260° W
Do, 19.05. 14:00 14 3 25 140° SO
Do, 19.05. 8:00 11 2 18 100° O
Do, 19.05. 2:00 11 2 22 140° SO
Mi, 18.05. 20:00 11 2 32 130° SO
Mi, 18.05. 14:00 15 3 31 170° S
Mi, 18.05. 8:00 4 1 22 10° N
Ortszeit Stärke Spitze Richtung
km/h Bft. km/h Grad Sektor
Fr, 20.05. 7:00 2 1 6 320° NW
Fr, 20.05. 6:50 2 1 - 320° NW
Fr, 20.05. 6:40 4 1 - 270° W
Fr, 20.05. 6:30 4 1 7 240° SW
Fr, 20.05. 6:20 4 1 - 240° SW
Fr, 20.05. 6:10 4 1 - 220° SW
Fr, 20.05. 6:00 4 1 7 240° SW
Fr, 20.05. 5:30 2 1 4 270° W
Fr, 20.05. 5:00 2 1 11 310° NW
Fr, 20.05. 4:30 4 1 11 310° NW
Fr, 20.05. 4:00 6 1 9 300° NW
Ortszeit Untergrenze Bedeckung Gattung
total tief tief mittel hoch
Fr, 20.05. 2:00 90 m 8/8 8/8 - - -
Do, 19.05. 20:00 1500 m 8/8 7/8 - - -
Do, 19.05. 14:00 2700 m 7/8 3/8 - - -
Do, 19.05. 8:00 10500 m 8/8 0/8 - - -
Do, 19.05. 2:00 8100 m 8/8 0/8 - - -
Mi, 18.05. 20:00 8400 m 8/8 0/8 - - -
Mi, 18.05. 14:00 9000 m 7/8 0/8 - - -
Mi, 18.05. 8:00 2400 m 7/8 5/8 - - -
Ortszeit Bedeckungsgrad in Achtel und Wolkenuntergrenze
Fr, 20.05. 7:00 8(180m)
Fr, 20.05. 6:50 8(180m)
Fr, 20.05. 6:40 8
Fr, 20.05. 6:30 8(210m)
Fr, 20.05. 6:20 8(210m)
Fr, 20.05. 6:10 8
Fr, 20.05. 6:00 7(180m)
Fr, 20.05. 5:30 6(180m) 7(2400m)
Fr, 20.05. 5:00 3(210m) 7(1800m) 7(2400m)
Fr, 20.05. 4:30 2(390m) 8(690m) 8(1800m)
Fr, 20.05. 4:00 2(240m) 8(360m)
Ortszeit Luftdruck NN (hPa) Tendenz (hPa in 3 Std.)
Fr, 20.05. 2:00 1022 + 0,8
Do, 19.05. 20:00 1021 + 1,0
Do, 19.05. 14:00 1017 - 1,5
Do, 19.05. 8:00 1019 + 0,2
Do, 19.05. 2:00 1019 - 0,3
Mi, 18.05. 20:00 1019 - 0,4
Mi, 18.05. 14:00 1021 - 0,9
Mi, 18.05. 8:00 1022 + 1,1
Ortszeit Luftdruck NN (hPa) Tendenz (hPa in 3 Std.)
Fr, 20.05. 7:00 1021 - 0,6
Fr, 20.05. 6:50 1021 keine Meldung
Fr, 20.05. 6:40 1021 keine Meldung
Fr, 20.05. 6:30 1021 - 0,6
Fr, 20.05. 6:20 1021 keine Meldung
Fr, 20.05. 6:10 1021 keine Meldung
Fr, 20.05. 6:00 1021 - 0,6
Fr, 20.05. 5:30 1021 - 0,7
Fr, 20.05. 5:00 1022 - 0,5
Fr, 20.05. 4:30 1022 - 0,2
Fr, 20.05. 4:00 1022 - 0,3
Ortszeit Schneehöhe (cm)
Fr, 20.05. 2:00 0
Do, 19.05. 20:00 0
Do, 19.05. 14:00 0
Do, 19.05. 8:00 0
Do, 19.05. 2:00 0
Mi, 18.05. 20:00 0
Mi, 18.05. 14:00 0
Mi, 18.05. 8:00 0
Ortszeit Schneehöhe (cm)
Fr, 20.05. 7:00 0
Fr, 20.05. 6:50 0
Fr, 20.05. 6:40 0
Fr, 20.05. 6:30 0
Fr, 20.05. 6:20 0
Fr, 20.05. 6:10 0
Fr, 20.05. 6:00 0
Fr, 20.05. 5:30 0
Fr, 20.05. 5:00 0
Fr, 20.05. 4:30 0
Fr, 20.05. 4:00 0
Link zu dieser Seite / Seite empfehlen

Das Wetter in ...